Macau International Airport

Airport
ICAO code: 
VMMC
IATA Code: 
MFM
Summary
ICAO Region: 
APAC
Territory: 
Location: 
Taipa,
Serving: 
Macau
Elevation: 
20 ft
Coordinates: 
Aerial View: 
22° 8' 57.998" N, 113° 35' 29" E
Metar
Observation
VMMC 042330Z 02010KT CAVOK 18/12 Q1022 NOSIG
Station
Taipa
Date/Time
2021-12-04 23:30:00
Wind direction
20°
Wind speed
10 kts
Lowest cloud amount
clouds and visibility OK
Temperature
18°C
Dew point
12°C
Humidity
67%
QNH
1022 hPa
Weather condition
n/a

Description

Macau International Airport situated at the eastern end of Taipa island and neighbouring waters, is the only airport in Macau. Since then the airport has been a common transfer point for people traveling between mainland China and Taiwan, as well as a passenger hub for destinations in mainland China and Southeast Asia.

Climatology

Humid “subtropical” climate (Köppen climate classification Cwa) - characterized by hot, humid summers and cool winters. Winter months are drier than the summer months. Winter rainfall (and sometimes snowfall) is associated with large storms that the westerlies steer from west to east. Most summer rainfall occurs during thunderstorms and the area is subject to frequent tropical typhoons.

Runways

Designator Length Width Surface Rops
16/34 3214 45 CON Yes/Yes
Airport map: 
Aerial View: 

Accidents and Serious Incidents at or in the vicinity of VMMC

SKYbrary Partners:

Safety knowledge contributed by: